sensor_id;sensor_type;location;lat;lon;timestamp;temperature;humidity
9564;DHT22;4820;50.870;4.702;2024-01-06T00:01:29;8.00;99.90
9564;DHT22;4820;50.870;4.702;2024-01-06T00:03:55;7.90;99.90
9564;DHT22;4820;50.870;4.702;2024-01-06T00:06:21;7.90;99.90
9564;DHT22;4820;50.870;4.702;2024-01-06T00:08:47;7.90;99.90
9564;DHT22;4820;50.870;4.702;2024-01-06T00:11:19;7.90;99.90
9564;DHT22;4820;50.870;4.702;2024-01-06T00:13:46;7.90;99.90
9564;DHT22;4820;50.870;4.702;2024-01-06T00:16:11;7.90;99.90
9564;DHT22;4820;50.870;4.702;2024-01-06T00:18:37;7.90;99.90
9564;DHT22;4820;50.870;4.702;2024-01-06T00:21:03;7.90;99.90
9564;DHT22;4820;50.870;4.702;2024-01-06T00:23:29;7.80;99.90
9564;DHT22;4820;50.870;4.702;2024-01-06T00:25:55;7.80;99.90
9564;DHT22;4820;50.870;4.702;2024-01-06T00:28:21;7.80;99.90
9564;DHT22;4820;50.870;4.702;2024-01-06T00:30:47;7.80;99.90
9564;DHT22;4820;50.870;4.702;2024-01-06T00:33:13;7.80;99.90
9564;DHT22;4820;50.870;4.702;2024-01-06T00:35:39;7.80;99.90
9564;DHT22;4820;50.870;4.702;2024-01-06T00:38:05;7.90;99.90
9564;DHT22;4820;50.870;4.702;2024-01-06T00:40:30;7.90;99.90
9564;DHT22;4820;50.870;4.702;2024-01-06T00:42:58;7.90;99.90
9564;DHT22;4820;50.870;4.702;2024-01-06T00:45:24;7.90;99.90
9564;DHT22;4820;50.870;4.702;2024-01-06T00:47:49;7.90;99.90
9564;DHT22;4820;50.870;4.702;2024-01-06T00:50:15;7.80;99.90
9564;DHT22;4820;50.870;4.702;2024-01-06T00:52:42;7.80;99.90
9564;DHT22;4820;50.870;4.702;2024-01-06T00:55:08;7.80;99.90
9564;DHT22;4820;50.870;4.702;2024-01-06T00:57:34;7.80;99.90
9564;DHT22;4820;50.870;4.702;2024-01-06T00:59:59;7.80;99.90
9564;DHT22;4820;50.870;4.702;2024-01-06T01:02:25;7.80;99.90
9564;DHT22;4820;50.870;4.702;2024-01-06T01:04:51;7.90;99.90
9564;DHT22;4820;50.870;4.702;2024-01-06T01:07:18;7.90;99.90
9564;DHT22;4820;50.870;4.702;2024-01-06T01:09:43;7.90;99.90
9564;DHT22;4820;50.870;4.702;2024-01-06T01:12:09;7.90;99.90
9564;DHT22;4820;50.870;4.702;2024-01-06T01:14:35;7.90;99.90
9564;DHT22;4820;50.870;4.702;2024-01-06T01:17:01;7.90;99.90
9564;DHT22;4820;50.870;4.702;2024-01-06T01:19:26;7.90;99.90
9564;DHT22;4820;50.870;4.702;2024-01-06T01:21:52;7.80;99.90
9564;DHT22;4820;50.870;4.702;2024-01-06T01:24:22;7.80;99.90
9564;DHT22;4820;50.870;4.702;2024-01-06T01:26:48;7.80;99.90
9564;DHT22;4820;50.870;4.702;2024-01-06T01:29:14;7.70;99.90
9564;DHT22;4820;50.870;4.702;2024-01-06T01:31:39;7.70;99.90
9564;DHT22;4820;50.870;4.702;2024-01-06T01:34:05;7.70;99.90
9564;DHT22;4820;50.870;4.702;2024-01-06T01:36:31;7.70;99.90
9564;DHT22;4820;50.870;4.702;2024-01-06T01:38:56;7.70;99.90
9564;DHT22;4820;50.870;4.702;2024-01-06T01:41:22;7.70;99.90
9564;DHT22;4820;50.870;4.702;2024-01-06T01:43:48;7.60;99.90
9564;DHT22;4820;50.870;4.702;2024-01-06T01:46:13;7.60;99.90
9564;DHT22;4820;50.870;4.702;2024-01-06T01:48:39;7.70;99.90
9564;DHT22;4820;50.870;4.702;2024-01-06T01:51:07;7.70;99.90
9564;DHT22;4820;50.870;4.702;2024-01-06T01:53:33;7.60;99.90
9564;DHT22;4820;50.870;4.702;2024-01-06T01:55:59;7.60;99.90
9564;DHT22;4820;50.870;4.702;2024-01-06T01:58:25;7.60;99.90
9564;DHT22;4820;50.870;4.702;2024-01-06T02:00:51;7.60;99.90
9564;DHT22;4820;50.870;4.702;2024-01-06T02:03:16;7.60;99.90
9564;DHT22;4820;50.870;4.702;2024-01-06T02:05:42;7.60;99.90
9564;DHT22;4820;50.870;4.702;2024-01-06T02:08:08;7.60;99.90
9564;DHT22;4820;50.870;4.702;2024-01-06T02:10:34;7.60;99.90
9564;DHT22;4820;50.870;4.702;2024-01-06T02:13:10;7.60;99.90
9564;DHT22;4820;50.870;4.702;2024-01-06T02:15:36;7.60;99.90
9564;DHT22;4820;50.870;4.702;2024-01-06T02:18:03;7.60;99.90
9564;DHT22;4820;50.870;4.702;2024-01-06T02:20:30;7.60;99.90
9564;DHT22;4820;50.870;4.702;2024-01-06T02:22:56;7.60;99.90
9564;DHT22;4820;50.870;4.702;2024-01-06T02:25:24;7.60;99.90
9564;DHT22;4820;50.870;4.702;2024-01-06T02:27:50;7.60;99.90
9564;DHT22;4820;50.870;4.702;2024-01-06T02:30:15;7.60;99.90
9564;DHT22;4820;50.870;4.702;2024-01-06T02:32:41;7.60;99.90
9564;DHT22;4820;50.870;4.702;2024-01-06T02:35:07;7.70;99.90
9564;DHT22;4820;50.870;4.702;2024-01-06T02:37:33;7.70;99.90
9564;DHT22;4820;50.870;4.702;2024-01-06T02:39:58;7.70;99.90
9564;DHT22;4820;50.870;4.702;2024-01-06T02:42:24;7.70;99.90
9564;DHT22;4820;50.870;4.702;2024-01-06T02:44:51;7.70;99.90
9564;DHT22;4820;50.870;4.702;2024-01-06T02:47:17;7.70;99.90
9564;DHT22;4820;50.870;4.702;2024-01-06T02:49:43;7.70;99.90
9564;DHT22;4820;50.870;4.702;2024-01-06T02:52:08;7.70;99.90
9564;DHT22;4820;50.870;4.702;2024-01-06T02:54:34;7.70;99.90
9564;DHT22;4820;50.870;4.702;2024-01-06T02:57:00;7.80;99.90
9564;DHT22;4820;50.870;4.702;2024-01-06T02:59:26;7.80;99.90
9564;DHT22;4820;50.870;4.702;2024-01-06T03:01:52;7.80;99.90
9564;DHT22;4820;50.870;4.702;2024-01-06T03:04:17;7.90;99.90
9564;DHT22;4820;50.870;4.702;2024-01-06T03:06:43;7.90;99.90
9564;DHT22;4820;50.870;4.702;2024-01-06T03:09:09;8.00;99.90
9564;DHT22;4820;50.870;4.702;2024-01-06T03:11:35;7.90;99.90
9564;DHT22;4820;50.870;4.702;2024-01-06T03:14:00;8.00;99.90
9564;DHT22;4820;50.870;4.702;2024-01-06T03:16:26;8.00;99.90
9564;DHT22;4820;50.870;4.702;2024-01-06T03:18:52;8.00;99.90
9564;DHT22;4820;50.870;4.702;2024-01-06T03:21:21;8.10;99.90
9564;DHT22;4820;50.870;4.702;2024-01-06T03:23:48;8.10;99.90
9564;DHT22;4820;50.870;4.702;2024-01-06T03:26:14;8.00;99.90
9564;DHT22;4820;50.870;4.702;2024-01-06T03:28:41;8.10;99.90
9564;DHT22;4820;50.870;4.702;2024-01-06T03:31:07;8.10;99.90
9564;DHT22;4820;50.870;4.702;2024-01-06T03:33:32;8.10;99.90
9564;DHT22;4820;50.870;4.702;2024-01-06T03:35:58;8.10;99.90
9564;DHT22;4820;50.870;4.702;2024-01-06T03:38:24;8.10;99.90
9564;DHT22;4820;50.870;4.702;2024-01-06T03:40:50;8.10;99.90
9564;DHT22;4820;50.870;4.702;2024-01-06T03:43:15;8.10;99.90
9564;DHT22;4820;50.870;4.702;2024-01-06T03:45:41;8.10;99.90
9564;DHT22;4820;50.870;4.702;2024-01-06T03:48:07;8.00;99.90
9564;DHT22;4820;50.870;4.702;2024-01-06T03:50:33;8.00;99.90
9564;DHT22;4820;50.870;4.702;2024-01-06T03:52:58;8.00;99.90
9564;DHT22;4820;50.870;4.702;2024-01-06T03:55:24;8.00;99.90
9564;DHT22;4820;50.870;4.702;2024-01-06T03:57:51;8.00;99.90
9564;DHT22;4820;50.870;4.702;2024-01-06T04:00:16;8.00;99.90
9564;DHT22;4820;50.870;4.702;2024-01-06T04:02:42;8.00;99.90
9564;DHT22;4820;50.870;4.702;2024-01-06T04:05:08;8.00;99.90
9564;DHT22;4820;50.870;4.702;2024-01-06T04:07:34;7.90;99.90
9564;DHT22;4820;50.870;4.702;2024-01-06T04:09:59;7.90;99.90
9564;DHT22;4820;50.870;4.702;2024-01-06T04:12:26;7.90;99.90
9564;DHT22;4820;50.870;4.702;2024-01-06T04:14:51;7.90;99.90
9564;DHT22;4820;50.870;4.702;2024-01-06T04:17:18;7.90;99.90
9564;DHT22;4820;50.870;4.702;2024-01-06T04:19:43;7.90;99.90
9564;DHT22;4820;50.870;4.702;2024-01-06T04:22:09;7.90;99.90
9564;DHT22;4820;50.870;4.702;2024-01-06T04:24:35;7.80;99.90
9564;DHT22;4820;50.870;4.702;2024-01-06T04:27:05;7.80;99.90
9564;DHT22;4820;50.870;4.702;2024-01-06T04:29:31;7.80;99.90
9564;DHT22;4820;50.870;4.702;2024-01-06T04:31:57;7.80;99.90
9564;DHT22;4820;50.870;4.702;2024-01-06T04:34:22;7.80;99.90
9564;DHT22;4820;50.870;4.702;2024-01-06T04:36:48;7.80;99.90
9564;DHT22;4820;50.870;4.702;2024-01-06T04:39:15;7.80;99.90
9564;DHT22;4820;50.870;4.702;2024-01-06T04:41:40;7.80;99.90
9564;DHT22;4820;50.870;4.702;2024-01-06T04:44:06;7.80;99.90
9564;DHT22;4820;50.870;4.702;2024-01-06T04:46:32;7.90;99.90
9564;DHT22;4820;50.870;4.702;2024-01-06T04:48:58;7.90;99.90
9564;DHT22;4820;50.870;4.702;2024-01-06T04:51:24;7.90;99.90
9564;DHT22;4820;50.870;4.702;2024-01-06T04:53:49;7.90;99.90
9564;DHT22;4820;50.870;4.702;2024-01-06T04:56:15;7.90;99.90
9564;DHT22;4820;50.870;4.702;2024-01-06T04:58:41;7.90;99.90
9564;DHT22;4820;50.870;4.702;2024-01-06T05:01:07;7.90;99.90
9564;DHT22;4820;50.870;4.702;2024-01-06T05:03:33;7.90;99.90
9564;DHT22;4820;50.870;4.702;2024-01-06T05:05:59;7.90;99.90
9564;DHT22;4820;50.870;4.702;2024-01-06T05:08:24;7.90;99.90
9564;DHT22;4820;50.870;4.702;2024-01-06T05:10:52;7.90;99.90
9564;DHT22;4820;50.870;4.702;2024-01-06T05:13:19;7.90;99.90
9564;DHT22;4820;50.870;4.702;2024-01-06T05:15:44;8.00;99.90
9564;DHT22;4820;50.870;4.702;2024-01-06T05:18:10;7.90;99.90
9564;DHT22;4820;50.870;4.702;2024-01-06T05:20:36;7.80;99.90
9564;DHT22;4820;50.870;4.702;2024-01-06T05:23:01;7.80;99.90
9564;DHT22;4820;50.870;4.702;2024-01-06T05:25:27;7.70;99.90
9564;DHT22;4820;50.870;4.702;2024-01-06T05:27:53;7.60;99.90
9564;DHT22;4820;50.870;4.702;2024-01-06T05:30:18;7.60;99.90
9564;DHT22;4820;50.870;4.702;2024-01-06T05:32:44;7.60;99.90
9564;DHT22;4820;50.870;4.702;2024-01-06T05:35:10;7.60;99.90
9564;DHT22;4820;50.870;4.702;2024-01-06T05:37:36;7.60;99.90
9564;DHT22;4820;50.870;4.702;2024-01-06T05:40:02;7.70;99.90
9564;DHT22;4820;50.870;4.702;2024-01-06T05:42:30;7.70;99.90
9564;DHT22;4820;50.870;4.702;2024-01-06T05:44:55;7.70;99.90
9564;DHT22;4820;50.870;4.702;2024-01-06T05:47:21;7.70;99.90
9564;DHT22;4820;50.870;4.702;2024-01-06T05:49:47;7.60;99.90
9564;DHT22;4820;50.870;4.702;2024-01-06T05:52:12;7.60;99.90
9564;DHT22;4820;50.870;4.702;2024-01-06T05:54:41;7.60;99.90
9564;DHT22;4820;50.870;4.702;2024-01-06T05:57:10;7.50;99.90
9564;DHT22;4820;50.870;4.702;2024-01-06T05:59:37;7.50;99.90
9564;DHT22;4820;50.870;4.702;2024-01-06T06:02:02;7.50;99.90
9564;DHT22;4820;50.870;4.702;2024-01-06T06:04:29;7.50;99.90
9564;DHT22;4820;50.870;4.702;2024-01-06T06:06:54;7.50;99.90
9564;DHT22;4820;50.870;4.702;2024-01-06T06:09:20;7.50;99.90
9564;DHT22;4820;50.870;4.702;2024-01-06T06:11:47;7.50;99.90
9564;DHT22;4820;50.870;4.702;2024-01-06T06:14:14;7.50;99.90
9564;DHT22;4820;50.870;4.702;2024-01-06T06:16:39;7.60;99.90
9564;DHT22;4820;50.870;4.702;2024-01-06T06:19:05;7.60;99.90
9564;DHT22;4820;50.870;4.702;2024-01-06T06:21:31;7.60;99.90
9564;DHT22;4820;50.870;4.702;2024-01-06T06:23:57;7.50;99.90
9564;DHT22;4820;50.870;4.702;2024-01-06T06:26:23;7.50;99.90
9564;DHT22;4820;50.870;4.702;2024-01-06T06:28:48;7.50;99.90
9564;DHT22;4820;50.870;4.702;2024-01-06T06:31:14;7.50;99.90
9564;DHT22;4820;50.870;4.702;2024-01-06T06:33:40;7.50;99.90
9564;DHT22;4820;50.870;4.702;2024-01-06T06:36:06;7.40;99.90
9564;DHT22;4820;50.870;4.702;2024-01-06T06:38:31;7.40;99.90
9564;DHT22;4820;50.870;4.702;2024-01-06T06:40:57;7.40;99.90
9564;DHT22;4820;50.870;4.702;2024-01-06T06:43:23;7.30;99.90
9564;DHT22;4820;50.870;4.702;2024-01-06T06:45:49;7.20;99.90
9564;DHT22;4820;50.870;4.702;2024-01-06T06:48:14;7.10;99.90
9564;DHT22;4820;50.870;4.702;2024-01-06T06:50:40;7.10;99.90
9564;DHT22;4820;50.870;4.702;2024-01-06T06:53:09;7.10;99.90
9564;DHT22;4820;50.870;4.702;2024-01-06T06:55:35;7.10;99.90
9564;DHT22;4820;50.870;4.702;2024-01-06T06:58:03;7.10;99.90
9564;DHT22;4820;50.870;4.702;2024-01-06T07:00:28;7.10;99.90
9564;DHT22;4820;50.870;4.702;2024-01-06T07:02:54;7.10;99.90
9564;DHT22;4820;50.870;4.702;2024-01-06T07:05:20;7.10;99.90
9564;DHT22;4820;50.870;4.702;2024-01-06T07:07:45;7.10;99.90
9564;DHT22;4820;50.870;4.702;2024-01-06T07:10:12;7.10;99.90
9564;DHT22;4820;50.870;4.702;2024-01-06T07:12:38;7.10;99.90
9564;DHT22;4820;50.870;4.702;2024-01-06T07:15:04;7.00;99.90
9564;DHT22;4820;50.870;4.702;2024-01-06T07:17:30;7.00;99.90
9564;DHT22;4820;50.870;4.702;2024-01-06T07:19:56;7.00;99.90
9564;DHT22;4820;50.870;4.702;2024-01-06T07:22:21;6.90;99.90
9564;DHT22;4820;50.870;4.702;2024-01-06T07:24:47;7.00;99.90
9564;DHT22;4820;50.870;4.702;2024-01-06T07:27:13;7.00;99.90
9564;DHT22;4820;50.870;4.702;2024-01-06T07:29:39;7.00;99.90
9564;DHT22;4820;50.870;4.702;2024-01-06T07:32:05;6.90;99.90
9564;DHT22;4820;50.870;4.702;2024-01-06T07:34:34;6.90;99.90
9564;DHT22;4820;50.870;4.702;2024-01-06T07:37:00;6.90;99.90
9564;DHT22;4820;50.870;4.702;2024-01-06T07:39:26;6.90;99.90
9564;DHT22;4820;50.870;4.702;2024-01-06T07:41:52;6.90;99.90
9564;DHT22;4820;50.870;4.702;2024-01-06T07:44:17;7.00;99.90
9564;DHT22;4820;50.870;4.702;2024-01-06T07:46:50;7.00;99.90
9564;DHT22;4820;50.870;4.702;2024-01-06T07:49:17;7.00;99.90
9564;DHT22;4820;50.870;4.702;2024-01-06T07:51:42;7.10;99.90
9564;DHT22;4820;50.870;4.702;2024-01-06T07:54:08;7.00;99.90
9564;DHT22;4820;50.870;4.702;2024-01-06T07:56:35;7.00;99.90
9564;DHT22;4820;50.870;4.702;2024-01-06T07:59:04;7.00;99.90
9564;DHT22;4820;50.870;4.702;2024-01-06T08:01:30;7.10;99.90
9564;DHT22;4820;50.870;4.702;2024-01-06T08:03:57;7.10;99.90
9564;DHT22;4820;50.870;4.702;2024-01-06T08:06:23;7.10;99.90
9564;DHT22;4820;50.870;4.702;2024-01-06T08:08:48;7.00;99.90
9564;DHT22;4820;50.870;4.702;2024-01-06T08:11:14;7.00;99.90
9564;DHT22;4820;50.870;4.702;2024-01-06T08:13:40;7.00;99.90
9564;DHT22;4820;50.870;4.702;2024-01-06T08:16:06;6.90;99.90
9564;DHT22;4820;50.870;4.702;2024-01-06T08:18:31;6.80;99.90
9564;DHT22;4820;50.870;4.702;2024-01-06T08:20:57;6.80;99.90
9564;DHT22;4820;50.870;4.702;2024-01-06T08:23:23;6.80;99.90
9564;DHT22;4820;50.870;4.702;2024-01-06T08:25:49;6.80;99.90
9564;DHT22;4820;50.870;4.702;2024-01-06T08:28:15;7.00;99.90
9564;DHT22;4820;50.870;4.702;2024-01-06T08:30:41;7.00;99.90
9564;DHT22;4820;50.870;4.702;2024-01-06T08:33:08;7.00;99.90
9564;DHT22;4820;50.870;4.702;2024-01-06T08:35:33;7.00;99.90
9564;DHT22;4820;50.870;4.702;2024-01-06T08:37:59;7.00;99.90
9564;DHT22;4820;50.870;4.702;2024-01-06T08:40:24;7.00;99.90
9564;DHT22;4820;50.870;4.702;2024-01-06T08:42:50;7.00;99.90
9564;DHT22;4820;50.870;4.702;2024-01-06T08:45:16;7.00;99.90
9564;DHT22;4820;50.870;4.702;2024-01-06T08:47:41;7.10;99.90
9564;DHT22;4820;50.870;4.702;2024-01-06T08:50:07;7.10;99.90
9564;DHT22;4820;50.870;4.702;2024-01-06T08:52:33;7.10;99.90
9564;DHT22;4820;50.870;4.702;2024-01-06T08:54:58;7.20;99.90
9564;DHT22;4820;50.870;4.702;2024-01-06T08:57:24;7.10;99.90
9564;DHT22;4820;50.870;4.702;2024-01-06T08:59:50;7.10;99.90
9564;DHT22;4820;50.870;4.702;2024-01-06T09:02:15;7.00;99.90
9564;DHT22;4820;50.870;4.702;2024-01-06T09:04:41;7.10;99.90
9564;DHT22;4820;50.870;4.702;2024-01-06T09:07:06;7.00;99.90
9564;DHT22;4820;50.870;4.702;2024-01-06T09:09:32;7.10;99.90
9564;DHT22;4820;50.870;4.702;2024-01-06T09:11:58;7.10;99.90
9564;DHT22;4820;50.870;4.702;2024-01-06T09:14:24;7.20;99.90
9564;DHT22;4820;50.870;4.702;2024-01-06T09:16:50;7.10;99.90
9564;DHT22;4820;50.870;4.702;2024-01-06T09:19:16;7.10;99.90
9564;DHT22;4820;50.870;4.702;2024-01-06T09:21:42;7.00;99.90
9564;DHT22;4820;50.870;4.702;2024-01-06T09:24:07;7.00;99.90
9564;DHT22;4820;50.870;4.702;2024-01-06T09:26:33;7.10;99.90
9564;DHT22;4820;50.870;4.702;2024-01-06T09:29:00;7.10;99.90
9564;DHT22;4820;50.870;4.702;2024-01-06T09:31:26;7.20;99.90
9564;DHT22;4820;50.870;4.702;2024-01-06T09:33:52;7.10;99.90
9564;DHT22;4820;50.870;4.702;2024-01-06T09:36:18;7.20;99.90
9564;DHT22;4820;50.870;4.702;2024-01-06T09:38:43;7.20;99.90
9564;DHT22;4820;50.870;4.702;2024-01-06T09:41:09;7.20;99.90
9564;DHT22;4820;50.870;4.702;2024-01-06T09:43:35;7.20;99.90
9564;DHT22;4820;50.870;4.702;2024-01-06T09:46:15;7.20;99.90
9564;DHT22;4820;50.870;4.702;2024-01-06T09:48:43;7.30;99.90
9564;DHT22;4820;50.870;4.702;2024-01-06T09:51:12;7.30;99.90
9564;DHT22;4820;50.870;4.702;2024-01-06T09:53:44;7.30;99.90
9564;DHT22;4820;50.870;4.702;2024-01-06T09:56:14;7.30;99.90
9564;DHT22;4820;50.870;4.702;2024-01-06T09:58:41;7.30;99.90
9564;DHT22;4820;50.870;4.702;2024-01-06T10:01:07;7.30;99.90
9564;DHT22;4820;50.870;4.702;2024-01-06T10:03:35;7.30;99.90
9564;DHT22;4820;50.870;4.702;2024-01-06T10:06:01;7.30;99.90
9564;DHT22;4820;50.870;4.702;2024-01-06T10:08:32;7.20;99.90
9564;DHT22;4820;50.870;4.702;2024-01-06T10:11:01;7.10;99.90
9564;DHT22;4820;50.870;4.702;2024-01-06T10:13:26;7.10;99.90
9564;DHT22;4820;50.870;4.702;2024-01-06T10:15:54;7.00;99.90
9564;DHT22;4820;50.870;4.702;2024-01-06T10:18:20;7.00;99.90
9564;DHT22;4820;50.870;4.702;2024-01-06T10:20:47;7.00;99.90
9564;DHT22;4820;50.870;4.702;2024-01-06T10:23:13;6.90;99.90
9564;DHT22;4820;50.870;4.702;2024-01-06T10:25:39;6.80;99.90
9564;DHT22;4820;50.870;4.702;2024-01-06T10:28:05;6.90;99.90
9564;DHT22;4820;50.870;4.702;2024-01-06T10:30:31;6.80;99.90
9564;DHT22;4820;50.870;4.702;2024-01-06T10:32:57;6.80;99.90
9564;DHT22;4820;50.870;4.702;2024-01-06T10:35:25;6.80;99.90
9564;DHT22;4820;50.870;4.702;2024-01-06T10:37:51;6.80;99.90
9564;DHT22;4820;50.870;4.702;2024-01-06T10:40:17;6.80;99.90
9564;DHT22;4820;50.870;4.702;2024-01-06T10:42:44;6.80;99.90
9564;DHT22;4820;50.870;4.702;2024-01-06T10:45:12;6.80;99.90
9564;DHT22;4820;50.870;4.702;2024-01-06T10:47:40;6.70;99.90
9564;DHT22;4820;50.870;4.702;2024-01-06T10:50:06;6.70;99.90
9564;DHT22;4820;50.870;4.702;2024-01-06T10:52:34;6.80;99.90
9564;DHT22;4820;50.870;4.702;2024-01-06T10:55:04;6.80;99.90
9564;DHT22;4820;50.870;4.702;2024-01-06T10:57:31;6.90;99.90
9564;DHT22;4820;50.870;4.702;2024-01-06T11:00:00;6.90;99.90
9564;DHT22;4820;50.870;4.702;2024-01-06T11:02:26;6.80;99.90
9564;DHT22;4820;50.870;4.702;2024-01-06T11:04:53;6.80;99.90
9564;DHT22;4820;50.870;4.702;2024-01-06T11:07:21;6.90;99.90
9564;DHT22;4820;50.870;4.702;2024-01-06T11:09:57;6.80;99.90
9564;DHT22;4820;50.870;4.702;2024-01-06T11:12:27;6.70;99.90
9564;DHT22;4820;50.870;4.702;2024-01-06T11:14:53;6.70;99.90
9564;DHT22;4820;50.870;4.702;2024-01-06T11:17:54;6.60;99.90
9564;DHT22;4820;50.870;4.702;2024-01-06T11:20:24;6.50;99.90
9564;DHT22;4820;50.870;4.702;2024-01-06T11:22:52;6.40;99.90
9564;DHT22;4820;50.870;4.702;2024-01-06T11:25:20;6.30;99.90
9564;DHT22;4820;50.870;4.702;2024-01-06T11:27:50;6.40;99.90
9564;DHT22;4820;50.870;4.702;2024-01-06T11:30:24;6.50;99.90
9564;DHT22;4820;50.870;4.702;2024-01-06T11:32:54;6.50;99.90
9564;DHT22;4820;50.870;4.702;2024-01-06T11:35:21;6.60;99.90
9564;DHT22;4820;50.870;4.702;2024-01-06T11:42:47;6.60;99.90
9564;DHT22;4820;50.870;4.702;2024-01-06T11:45:14;6.50;99.90
9564;DHT22;4820;50.870;4.702;2024-01-06T11:47:47;6.50;99.90
9564;DHT22;4820;50.870;4.702;2024-01-06T11:50:14;6.50;99.90
9564;DHT22;4820;50.870;4.702;2024-01-06T11:52:40;6.60;99.90
9564;DHT22;4820;50.870;4.702;2024-01-06T11:55:05;6.60;99.90
9564;DHT22;4820;50.870;4.702;2024-01-06T11:57:35;6.60;99.90
9564;DHT22;4820;50.870;4.702;2024-01-06T12:00:00;6.60;99.90
9564;DHT22;4820;50.870;4.702;2024-01-06T12:02:27;6.60;99.90
9564;DHT22;4820;50.870;4.702;2024-01-06T12:04:53;6.60;99.90
9564;DHT22;4820;50.870;4.702;2024-01-06T12:07:20;6.60;99.90
9564;DHT22;4820;50.870;4.702;2024-01-06T12:09:48;6.60;99.90
9564;DHT22;4820;50.870;4.702;2024-01-06T12:12:17;6.50;99.90
9564;DHT22;4820;50.870;4.702;2024-01-06T12:14:43;6.50;99.90
9564;DHT22;4820;50.870;4.702;2024-01-06T12:17:11;6.40;99.90
9564;DHT22;4820;50.870;4.702;2024-01-06T12:19:39;6.40;99.90
9564;DHT22;4820;50.870;4.702;2024-01-06T12:22:09;6.50;99.90
9564;DHT22;4820;50.870;4.702;2024-01-06T12:24:35;6.50;99.90
9564;DHT22;4820;50.870;4.702;2024-01-06T12:27:01;6.50;99.90
9564;DHT22;4820;50.870;4.702;2024-01-06T12:29:27;6.50;99.90
9564;DHT22;4820;50.870;4.702;2024-01-06T12:31:55;6.60;99.90
9564;DHT22;4820;50.870;4.702;2024-01-06T12:34:21;6.60;99.90
9564;DHT22;4820;50.870;4.702;2024-01-06T12:36:47;6.60;99.90
9564;DHT22;4820;50.870;4.702;2024-01-06T12:39:13;6.70;99.90
9564;DHT22;4820;50.870;4.702;2024-01-06T12:41:42;6.60;99.90
9564;DHT22;4820;50.870;4.702;2024-01-06T12:44:09;6.70;99.90
9564;DHT22;4820;50.870;4.702;2024-01-06T12:46:35;6.70;99.90
9564;DHT22;4820;50.870;4.702;2024-01-06T12:49:02;6.60;99.90
9564;DHT22;4820;50.870;4.702;2024-01-06T12:51:28;6.60;99.90
9564;DHT22;4820;50.870;4.702;2024-01-06T12:53:53;6.60;99.90
9564;DHT22;4820;50.870;4.702;2024-01-06T12:56:19;6.50;99.90
9564;DHT22;4820;50.870;4.702;2024-01-06T12:58:45;6.50;99.90
9564;DHT22;4820;50.870;4.702;2024-01-06T13:01:11;6.60;99.90
9564;DHT22;4820;50.870;4.702;2024-01-06T13:03:36;6.50;99.90
9564;DHT22;4820;50.870;4.702;2024-01-06T13:06:02;6.50;99.90
9564;DHT22;4820;50.870;4.702;2024-01-06T13:08:28;6.50;99.90
9564;DHT22;4820;50.870;4.702;2024-01-06T13:10:55;6.50;99.90
9564;DHT22;4820;50.870;4.702;2024-01-06T13:13:21;6.40;99.90
9564;DHT22;4820;50.870;4.702;2024-01-06T13:15:47;6.40;99.90
9564;DHT22;4820;50.870;4.702;2024-01-06T13:18:12;6.40;99.90
9564;DHT22;4820;50.870;4.702;2024-01-06T13:20:39;6.40;99.90
9564;DHT22;4820;50.870;4.702;2024-01-06T13:23:10;6.40;99.90
9564;DHT22;4820;50.870;4.702;2024-01-06T13:25:37;6.40;99.90
9564;DHT22;4820;50.870;4.702;2024-01-06T13:28:07;6.40;99.90
9564;DHT22;4820;50.870;4.702;2024-01-06T13:30:33;6.40;99.90
9564;DHT22;4820;50.870;4.702;2024-01-06T13:32:59;6.40;99.90
9564;DHT22;4820;50.870;4.702;2024-01-06T13:35:25;6.40;99.90
9564;DHT22;4820;50.870;4.702;2024-01-06T13:37:52;6.40;99.90
9564;DHT22;4820;50.870;4.702;2024-01-06T13:40:18;6.30;99.90
9564;DHT22;4820;50.870;4.702;2024-01-06T13:42:50;6.30;99.90
9564;DHT22;4820;50.870;4.702;2024-01-06T13:45:16;6.30;99.90
9564;DHT22;4820;50.870;4.702;2024-01-06T13:47:42;6.30;99.90
9564;DHT22;4820;50.870;4.702;2024-01-06T13:50:15;6.40;99.90
9564;DHT22;4820;50.870;4.702;2024-01-06T13:52:41;6.40;99.90
9564;DHT22;4820;50.870;4.702;2024-01-06T13:55:07;6.40;99.90
9564;DHT22;4820;50.870;4.702;2024-01-06T13:57:34;6.50;99.90
9564;DHT22;4820;50.870;4.702;2024-01-06T14:00:00;6.40;99.90
9564;DHT22;4820;50.870;4.702;2024-01-06T14:02:26;6.40;99.90
9564;DHT22;4820;50.870;4.702;2024-01-06T14:04:52;6.40;99.90
9564;DHT22;4820;50.870;4.702;2024-01-06T14:07:18;6.40;99.90
9564;DHT22;4820;50.870;4.702;2024-01-06T14:09:45;6.40;99.90
9564;DHT22;4820;50.870;4.702;2024-01-06T14:12:11;6.30;99.90
9564;DHT22;4820;50.870;4.702;2024-01-06T14:14:37;6.30;99.90
9564;DHT22;4820;50.870;4.702;2024-01-06T14:17:03;6.30;99.90
9564;DHT22;4820;50.870;4.702;2024-01-06T14:19:29;6.20;99.90
9564;DHT22;4820;50.870;4.702;2024-01-06T14:21:54;6.20;99.90
9564;DHT22;4820;50.870;4.702;2024-01-06T14:24:20;6.20;99.90
9564;DHT22;4820;50.870;4.702;2024-01-06T14:26:53;6.30;99.90
9564;DHT22;4820;50.870;4.702;2024-01-06T14:29:20;6.30;99.90
9564;DHT22;4820;50.870;4.702;2024-01-06T14:31:46;6.30;99.90
9564;DHT22;4820;50.870;4.702;2024-01-06T14:34:12;6.40;99.90
9564;DHT22;4820;50.870;4.702;2024-01-06T14:36:38;6.30;99.90
9564;DHT22;4820;50.870;4.702;2024-01-06T14:39:04;6.30;99.90
9564;DHT22;4820;50.870;4.702;2024-01-06T14:41:32;6.20;99.90
9564;DHT22;4820;50.870;4.702;2024-01-06T14:43:58;6.20;99.90
9564;DHT22;4820;50.870;4.702;2024-01-06T14:46:24;6.20;99.90
9564;DHT22;4820;50.870;4.702;2024-01-06T14:48:50;6.10;99.90
9564;DHT22;4820;50.870;4.702;2024-01-06T14:51:15;6.10;99.90
9564;DHT22;4820;50.870;4.702;2024-01-06T14:53:41;6.10;99.90
9564;DHT22;4820;50.870;4.702;2024-01-06T14:56:07;6.10;99.90
9564;DHT22;4820;50.870;4.702;2024-01-06T14:58:33;6.10;99.90
9564;DHT22;4820;50.870;4.702;2024-01-06T15:00:58;6.10;99.90
9564;DHT22;4820;50.870;4.702;2024-01-06T15:03:25;6.20;99.90
9564;DHT22;4820;50.870;4.702;2024-01-06T15:05:50;6.10;99.90
9564;DHT22;4820;50.870;4.702;2024-01-06T15:08:16;6.10;99.90
9564;DHT22;4820;50.870;4.702;2024-01-06T15:10:42;6.20;99.90
9564;DHT22;4820;50.870;4.702;2024-01-06T15:13:07;6.20;99.90
9564;DHT22;4820;50.870;4.702;2024-01-06T15:15:33;6.20;99.90
9564;DHT22;4820;50.870;4.702;2024-01-06T15:17:59;6.20;99.90
9564;DHT22;4820;50.870;4.702;2024-01-06T15:20:25;6.20;99.90
9564;DHT22;4820;50.870;4.702;2024-01-06T15:22:51;6.20;99.90
9564;DHT22;4820;50.870;4.702;2024-01-06T15:25:16;6.20;99.90
9564;DHT22;4820;50.870;4.702;2024-01-06T15:27:43;6.10;99.90
9564;DHT22;4820;50.870;4.702;2024-01-06T15:30:09;6.10;99.90
9564;DHT22;4820;50.870;4.702;2024-01-06T15:32:35;6.10;99.90
9564;DHT22;4820;50.870;4.702;2024-01-06T15:35:01;6.10;99.90
9564;DHT22;4820;50.870;4.702;2024-01-06T15:37:29;6.10;99.90
9564;DHT22;4820;50.870;4.702;2024-01-06T15:39:54;6.10;99.90
9564;DHT22;4820;50.870;4.702;2024-01-06T15:42:20;6.00;99.90
9564;DHT22;4820;50.870;4.702;2024-01-06T15:44:46;6.00;99.90
9564;DHT22;4820;50.870;4.702;2024-01-06T15:47:11;5.90;99.90
9564;DHT22;4820;50.870;4.702;2024-01-06T15:49:37;6.00;99.90
9564;DHT22;4820;50.870;4.702;2024-01-06T15:52:03;6.00;99.90
9564;DHT22;4820;50.870;4.702;2024-01-06T15:54:33;6.00;99.90
9564;DHT22;4820;50.870;4.702;2024-01-06T15:56:58;6.00;99.90
9564;DHT22;4820;50.870;4.702;2024-01-06T15:59:24;6.00;99.90
9564;DHT22;4820;50.870;4.702;2024-01-06T16:01:50;6.00;99.90
9564;DHT22;4820;50.870;4.702;2024-01-06T16:04:15;6.00;99.90
9564;DHT22;4820;50.870;4.702;2024-01-06T16:06:41;5.90;99.90
9564;DHT22;4820;50.870;4.702;2024-01-06T16:09:07;6.00;99.90
9564;DHT22;4820;50.870;4.702;2024-01-06T16:11:38;5.90;99.90
9564;DHT22;4820;50.870;4.702;2024-01-06T16:14:04;5.90;99.90
9564;DHT22;4820;50.870;4.702;2024-01-06T16:16:29;5.90;99.90